Weather at Adolfo Suárez Madrid–Barajas Airport

Public forecast

Using degrees Celsius for public forecast. Weather courtesy of forecast.io.

Current aviation weather report (METAR) for Adolfo Suárez Madrid–Barajas Airport

Retrieved 2021/04/22 22:30 UTC (18 minutes ago):

LEMD 222230Z 05002KT CAVOK 11/10 Q1017 NOSIG

Aviation forecast (TAF) for Adolfo Suárez Madrid–Barajas Airport

Retrieved 2021/04/22 18:28 UTC (4 hours ago):

TAF LEMD 221700Z 2218/2324 VRB05KT 9999 FEW040 TX20/2315Z TN09/2306Z PROB30 TEMPO 2220/2224 16010KT BECMG 2308/2310 16010KT BECMG 2317/2319 VRB05KT PROB30 TEMPO 2316/2324 3000 SHRA SCT035TCU